Time;durP1;ratioP1;P1;durP2;ratioP2;P2;SDS_P1;SDS_P2;PMS_P1;PMS_P2;Temp;Humidity;BMP_temperature;BMP_pressure;BME280_temperature;BME280_humidity;BME280_pressure;Samples;Min_cycle;Max_cycle;Signal;HPM_P1;HPM_P2
2021/04/07 00:02:09;;;;;;;8.58;4.72;;;;;;;0.15;69.29;99055.86;1701992;84;21149;-85
2021/04/07 00:04:36;;;;;;;11.10;5.08;;;;;;;0.15;69.26;99056.69;1702140;84;21122;-85
2021/04/07 00:07:04;;;;;;;8.83;4.75;;;;;;;0.14;69.46;99060.20;1702110;84;21578;-83
2021/04/07 00:09:30;;;;;;;9.25;4.87;;;;;;;0.14;69.33;99064.09;1702270;84;21164;-83
2021/04/07 00:11:56;;;;;;;11.05;5.42;;;;;;;0.13;69.51;99059.84;1702081;84;21281;-83
2021/04/07 00:14:24;;;;;;;10.72;5.08;;;;;;;0.12;69.64;99055.55;1702108;84;21124;-84
2021/04/07 00:16:50;;;;;;;8.70;5.00;;;;;;;0.13;69.63;99055.95;1702015;84;21608;-83
2021/04/07 00:19:17;;;;;;;8.00;5.33;;;;;;;0.13;69.56;99058.54;1702317;83;21151;-83
2021/04/07 00:21:43;;;;;;;8.18;5.75;;;;;;;0.14;69.71;99065.86;1702288;84;21543;-83
2021/04/07 00:24:09;;;;;;;7.12;3.95;;;;;;;0.14;69.84;99058.91;1707265;83;21107;-83
2021/04/07 00:26:35;;;;;;;8.03;4.42;;;;;;;0.15;69.80;99070.95;1702282;83;21154;-84
2021/04/07 00:29:03;;;;;;;9.38;3.35;;;;;;;0.18;69.76;99071.27;1701984;84;21132;-83
2021/04/07 00:31:29;;;;;;;9.68;5.95;;;;;;;0.18;69.80;99063.48;1701856;84;21099;-83
2021/04/07 00:33:55;;;;;;;10.95;5.12;;;;;;;0.21;69.75;99068.52;1702154;84;21261;-83
2021/04/07 00:36:21;;;;;;;11.88;5.33;;;;;;;0.21;69.76;99070.66;1701886;84;21652;-83
2021/04/07 00:38:47;;;;;;;7.78;4.80;;;;;;;0.21;69.97;99082.33;1701987;84;21192;-83
2021/04/07 00:41:13;;;;;;;9.03;5.67;;;;;;;0.22;69.93;99084.46;1702121;84;21158;-83
2021/04/07 00:43:39;;;;;;;14.23;4.80;;;;;;;0.21;70.03;99085.39;1702159;84;21099;-83
2021/04/07 00:46:05;;;;;;;11.60;5.05;;;;;;;0.23;69.97;99088.30;1682140;84;21214;-83
2021/04/07 00:48:32;;;;;;;10.45;4.45;;;;;;;0.26;70.06;99088.58;1702138;84;21245;-83
2021/04/07 00:50:58;;;;;;;12.23;6.50;;;;;;;0.28;70.10;99093.24;1714072;83;21131;-83
2021/04/07 00:53:24;;;;;;;8.33;4.55;;;;;;;0.31;70.07;99098.28;1702068;84;21233;-83
2021/04/07 00:55:51;;;;;;;6.80;3.87;;;;;;;0.33;70.22;99089.11;1702277;84;21107;-84
2021/04/07 00:58:17;;;;;;;8.13;4.60;;;;;;;0.33;70.29;99093.86;1701997;84;21252;-84
2021/04/07 01:00:44;;;;;;;9.38;4.35;;;;;;;0.36;70.27;99096.31;1701781;84;21111;-84
2021/04/07 01:03:13;;;;;;;8.38;4.55;;;;;;;0.36;70.12;99092.41;1680601;84;21119;-83
2021/04/07 01:05:40;;;;;;;7.35;4.58;;;;;;;0.39;69.92;99092.23;1701532;84;21632;-83
2021/04/07 01:08:06;;;;;;;5.95;4.12;;;;;;;0.41;70.07;99087.81;1702169;84;21096;-83
2021/04/07 01:10:33;;;;;;;8.83;5.08;;;;;;;0.40;69.79;99091.34;1702324;83;21538;-83
2021/04/07 01:12:59;;;;;;;8.90;4.55;;;;;;;0.38;69.79;99090.56;1702066;84;21119;-83
2021/04/07 01:15:27;;;;;;;8.15;4.15;;;;;;;0.36;69.93;99096.31;1702060;84;21155;-83
2021/04/07 01:17:58;;;;;;;6.08;3.92;;;;;;;0.35;69.80;99104.98;1682057;84;21609;-83
2021/04/07 01:20:26;;;;;;;7.65;4.78;;;;;;;0.34;69.89;99106.38;1701785;84;21189;-83
2021/04/07 01:23:01;;;;;;;6.60;4.72;;;;;;;0.34;70.11;99107.67;1701427;83;21135;-84
2021/04/07 01:25:27;;;;;;;7.58;3.77;;;;;;;0.30;70.14;99099.20;1715235;83;21183;-84
2021/04/07 01:27:53;;;;;;;9.63;4.33;;;;;;;0.29;70.17;99105.29;1715853;83;21111;-83
2021/04/07 01:30:20;;;;;;;6.15;3.98;;;;;;;0.30;70.21;99105.69;1702142;84;21290;-83
2021/04/07 01:32:46;;;;;;;5.95;3.80;;;;;;;0.30;70.29;99105.69;1702095;84;21131;-83
2021/04/07 01:35:16;;;;;;;7.67;4.30;;;;;;;0.30;70.27;99106.16;1701976;84;21282;-84
2021/04/07 01:37:42;;;;;;;8.58;4.33;;;;;;;0.30;70.41;99105.69;1702030;84;21103;-84
2021/04/07 01:40:13;;;;;;;5.72;4.47;;;;;;;0.30;70.63;99106.99;1702327;84;21313;-83
2021/04/07 01:42:44;;;;;;;7.10;4.75;;;;;;;0.31;70.54;99102.64;1702205;84;21147;-83
2021/04/07 01:45:12;;;;;;;8.63;5.28;;;;;;;0.31;70.73;99107.83;1706635;83;21144;-83
2021/04/07 01:47:39;;;;;;;8.50;5.22;;;;;;;0.33;70.75;99105.97;1701938;84;21582;-83
2021/04/07 01:50:07;;;;;;;8.10;4.33;;;;;;;0.34;70.79;99112.41;1702297;84;21160;-84
2021/04/07 01:52:33;;;;;;;11.88;4.70;;;;;;;0.36;71.00;99114.47;1702254;82;21159;-84
2021/04/07 01:55:00;;;;;;;6.35;4.60;;;;;;;0.37;71.17;99116.61;1696934;83;21147;-84
2021/04/07 01:57:26;;;;;;;7.25;4.00;;;;;;;0.37;70.93;99112.71;1701787;84;21149;-84
2021/04/07 01:59:52;;;;;;;9.05;4.35;;;;;;;0.39;70.95;99106.97;1702163;84;21156;-84
2021/04/07 02:02:18;;;;;;;5.97;3.92;;;;;;;0.42;70.97;99112.01;1702090;84;21542;-84
2021/04/07 02:04:44;;;;;;;7.83;3.87;;;;;;;0.44;70.95;99114.08;1702410;84;21204;-84
2021/04/07 02:07:16;;;;;;;6.90;4.05;;;;;;;0.46;71.00;99110.92;1701978;84;21167;-83
2021/04/07 02:09:43;;;;;;;7.45;4.50;;;;;;;0.45;71.18;99106.66;1702330;84;21281;-83
2021/04/07 02:12:10;;;;;;;7.58;5.12;;;;;;;0.46;71.10;99114.82;1702070;84;21147;-83
2021/04/07 02:14:36;;;;;;;6.03;3.92;;;;;;;0.46;70.98;99110.92;1702353;84;21137;-83
2021/04/07 02:17:05;;;;;;;8.20;3.83;;;;;;;0.46;70.77;99105.73;1701893;84;21170;-83
2021/04/07 02:19:34;;;;;;;4.95;3.62;;;;;;;0.49;70.62;99115.13;1717182;83;21546;-83
2021/04/07 02:22:11;;;;;;;5.62;3.42;;;;;;;0.50;70.46;99117.67;1721715;82;21442;-83
2021/04/07 02:24:39;;;;;;;5.87;3.45;;;;;;;0.51;70.36;99115.91;1677155;84;21128;-84
2021/04/07 02:27:18;;;;;;;6.05;3.65;;;;;;;0.53;70.22;99120.54;1705990;83;21566;-84
2021/04/07 02:29:47;;;;;;;4.62;3.30;;;;;;;0.53;70.23;99114.92;1694737;85;21163;-83
2021/04/07 02:32:13;;;;;;;5.03;3.33;;;;;;;0.55;69.90;99117.42;1748303;82;21127;-83
2021/04/07 02:34:42;;;;;;;6.20;3.22;;;;;;;0.55;69.89;99117.42;1699086;83;21135;-83
2021/04/07 02:37:10;;;;;;;6.85;3.60;;;;;;;0.56;69.96;99115.20;1693922;85;21149;-83
2021/04/07 02:39:36;;;;;;;4.97;3.65;;;;;;;0.57;69.89;99122.92;1719164;83;21155;-83
2021/04/07 02:42:03;;;;;;;5.00;3.15;;;;;;;0.61;69.80;99123.61;1693986;85;21347;-83
2021/04/07 02:44:29;;;;;;;5.37;3.83;;;;;;;0.61;69.89;99122.31;1694120;84;21157;-83
2021/04/07 02:46:56;;;;;;;4.35;3.55;;;;;;;0.62;69.82;99122.67;1693781;85;21119;-84
2021/04/07 02:49:22;;;;;;;6.40;3.62;;;;;;;0.64;69.83;99119.56;1701534;83;21112;-83
2021/04/07 02:51:50;;;;;;;7.37;2.98;;;;;;;0.65;69.78;99122.06;1725219;82;21178;-83
2021/04/07 02:54:16;;;;;;;8.25;4.72;;;;;;;0.67;69.82;99121.53;1710358;82;21596;-83
2021/04/07 02:56:42;;;;;;;7.65;5.60;;;;;;;0.69;69.93;99124.03;1702210;83;21138;-83
2021/04/07 02:59:08;;;;;;;11.63;7.53;;;;;;;0.69;69.90;99119.71;1694159;85;21195;-83
2021/04/07 03:01:35;;;;;;;7.85;4.95;;;;;;;0.70;69.84;99126.57;1713903;83;21234;-83
2021/04/07 03:04:01;;;;;;;7.50;4.22;;;;;;;0.70;69.77;99133.53;1719615;83;21111;-83
2021/04/07 03:06:27;;;;;;;7.00;4.90;;;;;;;0.23;69.82;99049.81;1694148;85;21240;-83
2021/04/07 03:08:53;;;;;;;5.42;3.62;;;;;;;0.72;70.04;99132.97;1694073;85;21071;-83
2021/04/07 03:11:19;;;;;;;8.13;4.42;;;;;;;0.74;70.06;99134.20;1702237;83;21244;-83
2021/04/07 03:13:46;;;;;;;8.73;4.40;;;;;;;0.75;70.16;99129.38;1706030;83;21147;-84
2021/04/07 03:16:12;;;;;;;7.60;4.33;;;;;;;0.74;70.25;99139.41;1694134;84;21136;-84
2021/04/07 03:18:38;;;;;;;9.20;4.28;;;;;;;0.74;70.33;99136.34;1721122;82;21570;-83
2021/04/07 03:21:05;;;;;;;10.05;4.67;;;;;;;0.75;70.44;99134.11;1725655;83;21542;-83
2021/04/07 03:23:31;;;;;;;7.70;4.67;;;;;;;0.74;70.50;99142.83;1703742;83;21084;-83
2021/04/07 03:25:57;;;;;;;8.35;5.15;;;;;;;0.74;70.60;99137.64;1689605;83;21607;-83
2021/04/07 03:28:24;;;;;;;7.78;5.10;;;;;;;0.74;70.65;99136.34;1702382;83;21094;-83
2021/04/07 03:30:51;;;;;;;10.20;5.15;;;;;;;0.74;70.82;99141.53;1708600;83;21115;-83
2021/04/07 03:33:25;;;;;;;7.12;4.55;;;;;;;0.75;70.88;99143.67;1718447;83;21110;-83
2021/04/07 03:35:52;;;;;;;8.60;5.20;;;;;;;0.76;70.90;99142.31;1702145;83;21100;-83
2021/04/07 03:38:19;;;;;;;6.10;4.30;;;;;;;0.79;70.87;99149.08;1701900;84;21565;-83
2021/04/07 03:40:46;;;;;;;6.47;5.10;;;;;;;0.79;70.89;99142.58;1701786;84;21549;-83
2021/04/07 03:43:20;;;;;;;9.13;5.05;;;;;;;0.81;70.95;99151.15;1701878;84;21163;-83
2021/04/07 03:45:53;;;;;;;8.28;4.62;;;;;;;0.81;70.99;99148.09;1702093;83;21102;-83
2021/04/07 03:48:28;;;;;;;8.45;4.40;;;;;;;0.84;71.02;99157.48;1701353;82;21286;-83
2021/04/07 03:50:58;;;;;;;7.08;5.08;;;;;;;0.83;70.92;99155.81;1693121;84;21099;-83
2021/04/07 03:53:24;;;;;;;8.68;5.10;;;;;;;0.84;70.98;99153.13;1710670;83;21662;-83
2021/04/07 03:55:53;;;;;;;7.78;5.03;;;;;;;0.85;70.99;99156.09;1677354;85;21143;-83
2021/04/07 03:58:20;;;;;;;12.90;6.80;;;;;;;0.84;70.93;99155.72;1692349;84;21110;-83
2021/04/07 04:00:47;;;;;;;11.15;5.95;;;;;;;0.84;70.84;99160.08;1702081;84;21291;-83
2021/04/07 04:03:14;;;;;;;12.78;5.70;;;;;;;0.83;70.50;99159.25;1702051;84;21669;-83
2021/04/07 04:05:40;;;;;;;8.73;4.58;;;;;;;0.83;70.50;99162.31;1702133;84;21173;-83
2021/04/07 04:08:07;;;;;;;9.30;4.47;;;;;;;0.84;70.44;99166.11;1701544;84;21107;-83
2021/04/07 04:10:34;;;;;;;6.70;5.22;;;;;;;0.85;70.37;99170.84;1702088;83;21084;-83
2021/04/07 04:13:01;;;;;;;7.67;5.03;;;;;;;0.84;70.08;99170.01;1702584;83;21494;-83
2021/04/07 04:15:28;;;;;;;10.53;4.20;;;;;;;0.85;70.08;99173.44;1712846;83;21155;-83
2021/04/07 04:17:54;;;;;;;6.92;4.35;;;;;;;0.83;69.97;99176.13;1689836;83;21644;-83
2021/04/07 04:20:20;;;;;;;7.87;4.90;;;;;;;0.83;69.98;99176.59;1701832;84;21124;-83
2021/04/07 04:22:47;;;;;;;5.78;3.70;;;;;;;0.82;70.00;99171.83;1701957;83;21297;-83
2021/04/07 04:25:19;;;;;;;5.03;3.42;;;;;;;0.81;69.90;99177.95;1711017;83;21540;-83
2021/04/07 04:27:46;;;;;;;7.20;3.62;;;;;;;0.81;69.73;99181.02;1705500;83;21175;-83
2021/04/07 04:30:16;;;;;;;7.87;4.37;;;;;;;0.82;69.82;99182.69;1702257;84;21183;-83
2021/04/07 04:32:42;;;;;;;6.42;4.12;;;;;;;0.82;69.86;99186.11;1701851;84;21168;-83
2021/04/07 04:35:10;;;;;;;6.70;4.45;;;;;;;0.83;69.89;99196.08;1702191;84;21520;-83
2021/04/07 04:37:39;;;;;;;5.65;4.25;;;;;;;0.83;69.85;99186.52;1702279;84;21546;-84
2021/04/07 04:40:10;;;;;;;6.58;4.65;;;;;;;0.84;69.88;99190.78;1716645;83;21132;-84
2021/04/07 04:42:37;;;;;;;7.12;5.20;;;;;;;0.84;70.04;99202.47;1706204;82;21164;-84
2021/04/07 04:45:05;;;;;;;8.28;4.90;;;;;;;0.84;70.30;99199.04;1707178;82;21107;-83
2021/04/07 04:47:31;;;;;;;9.18;6.30;;;;;;;0.84;70.36;99204.23;1697108;84;21131;-83
2021/04/07 04:49:57;;;;;;;6.42;4.78;;;;;;;0.84;70.42;99202.94;1721595;83;21186;-87
2021/04/07 04:52:23;;;;;;;6.55;3.98;;;;;;;0.84;70.40;99208.97;1718993;82;21229;-85
2021/04/07 04:54:49;;;;;;;6.90;4.55;;;;;;;0.85;70.29;99205.91;1713548;83;21145;-85
2021/04/07 04:57:16;;;;;;;8.13;4.62;;;;;;;0.85;70.42;99208.04;1727864;83;21123;-85
2021/04/07 04:59:42;;;;;;;5.10;4.22;;;;;;;0.86;70.12;99213.63;1716913;83;21145;-85
2021/04/07 05:02:08;;;;;;;6.40;4.53;;;;;;;0.87;70.04;99216.61;1728530;83;21173;-85
2021/04/07 05:04:34;;;;;;;5.62;4.15;;;;;;;0.88;70.11;99218.27;1711639;83;21241;-85
2021/04/07 05:07:01;;;;;;;5.53;4.47;;;;;;;0.91;69.96;99224.62;1724436;82;21220;-85
2021/04/07 05:09:27;;;;;;;6.85;4.72;;;;;;;0.92;69.95;99217.23;1706464;82;21514;-85
2021/04/07 05:11:53;;;;;;;5.65;3.90;;;;;;;0.93;70.05;99224.09;1714227;82;21155;-85
2021/04/07 05:14:19;;;;;;;7.85;4.87;;;;;;;0.93;69.90;99225.39;1715552;82;21096;-85
2021/04/07 05:16:46;;;;;;;7.50;4.62;;;;;;;0.93;69.94;99227.98;1700758;84;21185;-87
2021/04/07 05:19:12;;;;;;;7.55;4.83;;;;;;;0.94;70.03;99229.66;1713832;83;21531;-84
2021/04/07 05:21:38;;;;;;;8.70;5.62;;;;;;;0.96;69.97;99228.77;1718762;82;21123;-85
2021/04/07 05:24:06;;;;;;;8.15;5.28;;;;;;;0.97;69.94;99242.12;1689997;83;21142;-85
2021/04/07 05:26:34;;;;;;;7.00;4.75;;;;;;;0.97;69.97;99238.23;1693664;83;21104;-85
2021/04/07 05:29:00;;;;;;;9.10;6.17;;;;;;;0.97;70.16;99249.45;1697812;83;21297;-85
2021/04/07 05:31:26;;;;;;;10.03;5.62;;;;;;;0.97;70.23;99252.05;1682681;85;21199;-85
2021/04/07 05:33:52;;;;;;;8.90;5.87;;;;;;;0.97;70.15;99257.24;1720260;82;21098;-83
2021/04/07 05:36:19;;;;;;;9.43;5.67;;;;;;;0.97;70.40;99260.31;1704743;83;21284;-84
2021/04/07 05:38:45;;;;;;;10.38;4.70;;;;;;;0.94;70.62;99260.83;1724710;82;21243;-84
2021/04/07 05:41:11;;;;;;;15.58;5.90;;;;;;;0.91;70.92;99271.84;1733208;82;21166;-84
2021/04/07 05:43:39;;;;;;;11.68;5.20;;;;;;;0.87;71.07;99268.55;1694185;85;21549;-83
2021/04/07 05:46:08;;;;;;;9.80;6.12;;;;;;;0.88;71.34;99268.92;1702323;84;21277;-83
2021/04/07 05:48:35;;;;;;;9.40;5.95;;;;;;;0.91;71.81;99271.38;1711730;83;21542;-83
2021/04/07 05:51:02;;;;;;;13.60;7.03;;;;;;;0.93;71.77;99273.45;1699535;83;21184;-83
2021/04/07 05:53:28;;;;;;;9.70;5.97;;;;;;;0.94;71.86;99277.72;1715171;82;21138;-83
2021/04/07 05:55:57;;;;;;;8.50;5.65;;;;;;;0.96;72.26;99277.66;1712937;82;21098;-83
2021/04/07 05:58:24;;;;;;;9.65;6.30;;;;;;;0.90;73.37;99291.78;1705165;82;21176;-84
2021/04/07 06:00:51;;;;;;;11.20;5.75;;;;;;;0.81;74.33;99286.20;1712691;82;21089;-83
2021/04/07 06:03:18;;;;;;;8.73;5.55;;;;;;;0.72;74.29;99286.17;1724106;82;21298;-83
2021/04/07 06:05:47;;;;;;;9.08;6.62;;;;;;;0.67;74.47;99289.01;1704711;82;22289;-83
2021/04/07 06:08:14;;;;;;;10.18;6.85;;;;;;;0.64;74.74;99290.91;1715948;82;21185;-83
2021/04/07 06:10:47;;;;;;;12.18;8.48;;;;;;;0.64;75.08;99294.34;1736605;81;21122;-83
2021/04/07 06:13:17;;;;;;;10.18;6.10;;;;;;;0.63;74.88;99297.03;1722023;82;21118;-83
2021/04/07 06:15:44;;;;;;;8.40;5.33;;;;;;;0.65;75.07;99297.78;1701839;84;21555;-83
2021/04/07 06:18:12;;;;;;;13.65;8.50;;;;;;;0.63;75.48;99302.22;1701995;84;21104;-83
2021/04/07 06:20:50;;;;;;;15.70;8.25;;;;;;;0.59;75.22;99307.16;1703763;82;21331;-83
2021/04/07 06:23:20;;;;;;;15.03;8.28;;;;;;;0.58;75.60;99305.02;1701867;84;21125;-83
2021/04/07 06:25:47;;;;;;;13.25;8.68;;;;;;;0.58;75.78;99313.27;1672958;84;21163;-83
2021/04/07 06:28:15;;;;;;;12.03;6.50;;;;;;;0.56;76.08;99312.06;1701902;82;21589;-84
2021/04/07 06:30:43;;;;;;;7.95;5.60;;;;;;;0.55;76.14;99318.14;1721799;82;21550;-84
2021/04/07 06:33:22;;;;;;;6.03;4.17;;;;;;;0.54;76.41;99316.47;1701642;84;21273;-84
2021/04/07 06:35:58;;;;;;;8.13;5.28;;;;;;;0.55;76.69;99317.31;1702130;84;21645;-83
2021/04/07 06:38:25;;;;;;;7.10;5.62;;;;;;;0.55;76.82;99316.02;1712489;82;21083;-83
2021/04/07 06:40:53;;;;;;;9.28;6.55;;;;;;;0.55;76.67;99312.12;1728333;82;21139;-84
2021/04/07 06:43:22;;;;;;;7.92;6.28;;;;;;;0.57;77.35;99321.52;1711106;82;21114;-83
2021/04/07 06:45:48;;;;;;;8.38;6.45;;;;;;;0.57;76.95;99323.28;1736528;82;21134;-83
2021/04/07 06:48:16;;;;;;;11.57;7.28;;;;;;;0.58;77.30;99319.77;1701484;84;21644;-83
2021/04/07 06:50:45;;;;;;;9.18;6.03;;;;;;;0.59;77.09;99325.33;1701774;82;21538;-83
2021/04/07 06:53:11;;;;;;;15.20;9.73;;;;;;;0.61;77.18;99326.95;1704276;83;21131;-85
2021/04/07 06:55:39;;;;;;;11.03;6.60;;;;;;;0.65;76.92;99323.28;1721429;82;21132;-85
2021/04/07 06:58:08;;;;;;;10.95;7.33;;;;;;;0.73;77.65;99324.70;1700371;84;21145;-83
2021/04/07 07:00:38;;;;;;;8.93;5.95;;;;;;;0.79;77.11;99334.33;1700473;84;21175;-83
2021/04/07 07:03:15;;;;;;;8.80;6.45;;;;;;;0.84;76.87;99326.30;1699442;82;21136;-83
2021/04/07 07:05:45;;;;;;;10.48;6.03;;;;;;;0.93;77.04;99338.39;1700549;84;21201;-84
2021/04/07 07:08:15;;;;;;;8.45;5.05;;;;;;;1.02;77.03;99344.03;1700990;84;21095;-82
2021/04/07 07:10:48;;;;;;;10.05;5.70;;;;;;;1.10;76.42;99343.22;1702050;83;21120;-83
2021/04/07 07:13:21;;;;;;;11.08;7.45;;;;;;;1.17;76.24;99345.89;1701448;82;21170;-83
2021/04/07 07:15:47;;;;;;;;;;;;;;;1.25;76.35;99342.47;1724071;82;21110;-83
2021/04/07 07:18:28;;;;;;;7.70;5.72;;;;;;;1.31;75.62;99346.03;1752282;82;20138;-83
2021/04/07 07:20:56;;;;;;;10.48;5.17;;;;;;;1.35;75.84;99342.38;1726623;82;21076;-83
2021/04/07 07:23:29;;;;;;;7.60;5.90;;;;;;;1.45;75.89;99341.46;1726239;83;21110;-84
2021/04/07 07:26:03;;;;;;;11.75;6.35;;;;;;;1.36;75.79;99310.73;1708565;83;21221;-83
2021/04/07 07:28:47;;;;;;;13.05;5.67;;;;;;;1.61;75.34;99353.19;1707758;83;21533;-84
2021/04/07 07:31:29;;;;;;;9.95;4.72;;;;;;;1.61;74.38;99348.86;1708870;83;21171;-83
2021/04/07 07:33:58;;;;;;;9.18;4.85;;;;;;;1.61;73.88;99349.30;1697035;83;21202;-84
2021/04/07 07:36:26;;;;;;;5.30;3.27;;;;;;;1.66;73.73;99359.02;1700616;84;21187;-83
2021/04/07 07:38:55;;;;;;;9.30;5.62;;;;;;;1.71;73.58;99352.27;1700158;84;21384;-84
2021/04/07 07:41:30;;;;;;;11.15;4.33;;;;;;;1.75;73.79;99362.45;1701091;83;21582;-83
2021/04/07 07:43:56;;;;;;;27.77;12.45;;;;;;;1.76;72.92;99361.98;1711414;82;21279;-84
2021/04/07 07:46:27;;;;;;;11.48;6.25;;;;;;;1.78;72.63;99374.00;1716202;82;21100;-84
2021/04/07 07:48:53;;;;;;;31.20;14.35;;;;;;;1.82;73.09;99368.17;1699340;84;21151;-83
2021/04/07 07:51:26;;;;;;;33.02;15.40;;;;;;;1.86;73.17;99374.42;1696610;83;21087;-83
2021/04/07 07:53:54;;;;;;;39.25;19.48;;;;;;;1.90;73.05;99379.00;1698890;82;21122;-83
2021/04/07 07:56:23;;;;;;;25.90;12.82;;;;;;;1.94;72.38;99383.59;1736724;82;21267;-84
2021/04/07 07:58:52;;;;;;;10.20;5.75;;;;;;;1.94;72.57;99390.09;1712370;82;21139;-85
2021/04/07 08:01:20;;;;;;;33.83;14.87;;;;;;;1.95;72.45;99388.73;1701782;83;21178;-82
2021/04/07 08:03:48;;;;;;;21.15;10.30;;;;;;;2.01;72.17;99394.08;1702113;84;21184;-83
2021/04/07 08:06:16;;;;;;;48.10;25.75;;;;;;;2.05;72.49;99393.00;1702103;84;21139;-83
2021/04/07 08:08:43;;;;;;;15.80;6.62;;;;;;;2.10;71.81;99401.38;1702228;83;21120;-84
2021/04/07 08:11:09;;;;;;;7.78;3.47;;;;;;;2.14;71.71;99400.76;1702269;83;21277;-86
2021/04/07 08:13:42;;;;;;;7.35;4.53;;;;;;;2.16;69.80;99407.58;1701820;84;21152;-84
2021/04/07 08:16:13;;;;;;;6.67;4.60;;;;;;;2.16;70.68;99402.37;1701736;82;21119;-83
2021/04/07 08:18:40;;;;;;;7.75;4.85;;;;;;;2.22;71.58;99405.95;1709296;82;21123;-83
2021/04/07 08:21:07;;;;;;;9.75;5.15;;;;;;;2.29;71.45;99407.30;1736674;82;21877;-83
2021/04/07 08:23:36;;;;;;;6.15;4.15;;;;;;;2.32;70.99;99410.21;1713958;82;21139;-83
2021/04/07 08:26:03;;;;;;;7.20;3.98;;;;;;;2.31;70.44;99412.45;1700504;84;21326;-84
2021/04/07 08:28:31;;;;;;;7.60;4.75;;;;;;;2.31;70.29;99414.58;1700680;84;21127;-84
2021/04/07 08:30:57;;;;;;;11.05;4.78;;;;;;;2.28;70.13;99422.55;1716024;82;21577;-83
2021/04/07 08:33:23;;;;;;;6.70;4.00;;;;;;;2.25;70.31;99421.87;1736715;82;21260;-83
2021/04/07 08:35:54;;;;;;;8.95;4.45;;;;;;;2.23;70.23;99428.91;1684163;84;21281;-83
2021/04/07 08:38:33;;;;;;;7.80;4.37;;;;;;;2.20;69.94;99423.86;1702147;82;21641;-83
2021/04/07 08:41:13;;;;;;;7.78;4.87;;;;;;;2.18;70.17;99429.63;1699920;84;21550;-83
2021/04/07 08:43:40;;;;;;;7.47;3.85;;;;;;;2.19;70.27;99434.74;1698247;84;21169;-83
2021/04/07 08:46:16;;;;;;;11.48;5.22;;;;;;;2.21;69.46;99434.68;1705855;82;21182;-85
2021/04/07 08:48:43;;;;;;;10.95;5.15;;;;;;;2.18;69.99;99434.38;1720188;82;21641;-85
2021/04/07 08:51:12;;;;;;;6.30;3.35;;;;;;;2.22;70.02;99438.95;1710955;82;21134;-83
2021/04/07 08:53:49;;;;;;;8.68;5.47;;;;;;;2.25;70.30;99447.91;1700381;84;21162;-84
2021/04/07 08:56:28;;;;;;;6.78;3.17;;;;;;;2.29;69.77;99450.72;1710498;82;21621;-83
2021/04/07 08:59:04;;;;;;;9.85;3.80;;;;;;;2.33;69.22;99445.73;1701493;84;21155;-83
2021/04/07 09:01:36;;;;;;;8.65;5.22;;;;;;;2.38;69.93;99450.71;1700582;84;21139;-83
2021/04/07 09:04:11;;;;;;;8.50;5.78;;;;;;;2.46;69.31;99439.41;1702419;84;21084;-83
2021/04/07 09:06:40;;;;;;;9.18;7.03;;;;;;;2.53;69.66;99443.37;1701091;82;21113;-83
2021/04/07 09:09:07;;;;;;;10.28;4.08;;;;;;;2.61;69.53;99443.81;1702093;84;21176;-83
2021/04/07 09:11:41;;;;;;;10.80;6.28;;;;;;;2.62;68.56;99449.39;1701766;83;21610;-84
2021/04/07 09:14:08;;;;;;;6.65;4.65;;;;;;;2.57;68.57;99456.62;1715353;82;21274;-86
2021/04/07 09:16:41;;;;;;;6.35;3.83;;;;;;;2.47;68.62;99465.83;1720190;82;21164;-85
2021/04/07 09:19:24;;;;;;;8.65;5.60;;;;;;;2.35;68.91;99460.36;1724227;82;21427;-85
2021/04/07 09:22:00;;;;;;;10.28;4.58;;;;;;;2.32;69.51;99457.91;1697196;84;21171;-85
2021/04/07 09:24:31;;;;;;;6.35;3.45;;;;;;;2.38;69.62;99461.13;1717940;82;21138;-83
2021/04/07 09:26:58;;;;;;;11.18;5.85;;;;;;;2.41;69.26;99461.80;1693425;84;21558;-83
2021/04/07 09:29:25;;;;;;;8.78;4.65;;;;;;;2.46;68.55;99470.20;1720349;82;21288;-84
2021/04/07 09:31:54;;;;;;;11.85;3.83;;;;;;;2.50;69.04;99477.38;1689354;85;21132;-83
2021/04/07 09:34:20;;;;;;;6.83;3.95;;;;;;;2.53;69.15;99482.00;1719528;83;21164;-83
2021/04/07 09:36:48;;;;;;;4.53;3.40;;;;;;;2.50;69.39;99481.29;1693475;83;21553;-83
2021/04/07 09:39:23;;;;;;;7.28;3.87;;;;;;;2.52;69.27;99475.55;1714117;83;21735;-83
2021/04/07 09:41:48;;;;;;;7.42;4.25;;;;;;;2.58;69.24;99477.37;1712110;82;21132;-83
2021/04/07 09:44:16;;;;;;;7.58;3.42;;;;;;;2.67;69.34;99485.63;1683015;85;21331;-82
2021/04/07 09:46:52;;;;;;;6.33;3.40;;;;;;;2.79;69.39;99475.83;1688334;85;21150;-82
2021/04/07 09:49:18;;;;;;;6.50;4.80;;;;;;;2.93;67.62;99477.69;1691584;83;21576;-83
2021/04/07 09:51:50;;;;;;;5.03;2.60;;;;;;;3.02;67.32;99478.02;1707466;83;21261;-82
2021/04/07 09:54:31;;;;;;;5.58;2.33;;;;;;;3.12;67.19;99477.52;1686927;85;21522;-82
2021/04/07 09:57:04;;;;;;;8.15;3.33;;;;;;;3.20;66.14;99484.00;1673832;86;21183;-86
2021/04/07 09:59:32;;;;;;;;;;;;;;;3.27;65.05;99485.80;1676107;85;21367;-85
2021/04/07 10:01:58;;;;;;;5.83;3.37;;;;;;;3.26;63.85;99486.27;1705119;82;20141;-86
2021/04/07 10:04:30;;;;;;;7.40;4.95;;;;;;;3.23;63.72;99487.75;1688708;85;21327;-82
2021/04/07 10:06:56;;;;;;;12.53;7.67;;;;;;;3.20;64.50;99487.91;1690576;85;21144;-82
2021/04/07 10:09:28;;;;;;;27.00;15.85;;;;;;;3.20;64.31;99487.08;1702166;84;21534;-83
2021/04/07 10:11:55;;;;;;;5.08;3.35;;;;;;;3.20;64.59;99494.43;1701722;82;21167;-83
2021/04/07 10:14:21;;;;;;;6.17;2.80;;;;;;;3.23;64.67;99493.43;1698320;84;21119;-83
2021/04/07 10:16:47;;;;;;;4.72;2.02;;;;;;;3.20;63.82;99487.91;1681463;84;21147;-83
2021/04/07 10:19:13;;;;;;;34.67;21.05;;;;;;;3.19;63.59;99498.41;1702067;84;21123;-83
2021/04/07 10:21:44;;;;;;;30.02;14.70;;;;;;;3.17;63.58;99499.81;1702102;83;21181;-84
2021/04/07 10:24:16;;;;;;;9.68;3.80;;;;;;;2.98;63.20;99463.95;1701828;84;21589;-82
2021/04/07 10:26:44;;;;;;;14.07;7.42;;;;;;;3.29;63.96;99499.58;1701637;84;21264;-82
2021/04/07 10:29:25;;;;;;;5.83;2.55;;;;;;;3.36;63.55;99489.20;1700936;84;21160;-82
2021/04/07 10:31:58;;;;;;;8.55;2.50;;;;;;;3.48;63.19;99500.23;1696888;84;21166;-83
2021/04/07 10:34:34;;;;;;;11.57;5.25;;;;;;;3.59;62.13;99497.50;1701941;84;21297;-82
2021/04/07 10:37:03;;;;;;;7.92;2.80;;;;;;;3.63;62.04;99496.40;1698343;82;21184;-82
2021/04/07 10:39:43;;;;;;;7.30;5.00;;;;;;;3.64;61.35;99504.59;1702554;82;21612;-83
2021/04/07 10:42:15;;;;;;;12.13;6.20;;;;;;;3.63;61.96;99498.53;1705140;83;21148;-83
2021/04/07 10:44:41;;;;;;;12.05;6.72;;;;;;;3.61;61.92;99499.08;1700047;84;21110;-83
2021/04/07 10:47:15;;;;;;;14.78;8.10;;;;;;;3.69;63.42;99498.66;1698717;84;21635;-82
2021/04/07 10:49:55;;;;;;;7.45;3.37;;;;;;;3.92;63.56;99494.25;1717739;83;21582;-82
2021/04/07 10:52:37;;;;;;;8.53;2.72;;;;;;;4.20;63.26;99480.39;1724201;82;21144;-82
2021/04/07 10:55:14;;;;;;;4.22;2.52;;;;;;;4.53;63.18;99486.29;1720241;82;21129;-86
2021/04/07 10:57:46;;;;;;;6.03;2.50;;;;;;;4.79;61.50;99493.84;1718799;82;21124;-82
2021/04/07 11:00:29;;;;;;;4.72;1.17;;;;;;;4.75;59.88;99504.12;1693053;85;21620;-84
2021/04/07 11:02:56;;;;;;;9.65;2.20;;;;;;;4.65;59.27;99503.37;1677010;85;21169;-83
2021/04/07 11:05:25;;;;;;;5.33;2.92;;;;;;;4.57;58.76;99514.73;1683518;85;21100;-82
2021/04/07 11:08:06;;;;;;;4.00;1.92;;;;;;;4.55;60.47;99507.48;1687596;85;21139;-82
2021/04/07 11:10:45;;;;;;;8.43;2.92;;;;;;;4.56;60.56;99513.06;1719306;83;21139;-82
2021/04/07 11:13:13;;;;;;;4.00;2.35;;;;;;;4.51;60.53;99520.80;1694006;84;21570;-83
2021/04/07 11:15:41;;;;;;;7.75;2.85;;;;;;;4.48;60.57;99515.80;1719284;83;21286;-84
2021/04/07 11:18:07;;;;;;;4.40;2.60;;;;;;;4.56;60.75;99522.22;1695444;83;21491;-84
2021/04/07 11:20:34;;;;;;;5.05;1.72;;;;;;;4.73;61.15;99508.59;1723212;82;21074;-84
2021/04/07 11:23:00;;;;;;;5.92;2.85;;;;;;;4.95;60.57;99510.25;1693724;85;21595;-84
2021/04/07 11:25:27;;;;;;;6.37;2.20;;;;;;;5.13;59.83;99507.80;1719649;83;21150;-84
2021/04/07 11:27:57;;;;;;;3.25;1.52;;;;;;;5.29;60.24;99506.81;1693800;84;21164;-84
2021/04/07 11:30:23;;;;;;;3.58;1.85;;;;;;;5.27;57.74;99510.02;1694163;83;21168;-84
2021/04/07 11:32:56;;;;;;;4.05;2.50;;;;;;;5.12;58.54;99511.33;1694042;84;21143;-84
2021/04/07 11:35:34;;;;;;;2.35;1.47;;;;;;;5.09;58.44;99527.22;1693826;84;21592;-84
2021/04/07 11:38:05;;;;;;;6.62;1.22;;;;;;;5.03;58.02;99518.44;1693632;83;21550;-85
2021/04/07 11:45:40;;;;;;;2.58;1.32;;;;;;;5.38;57.85;99536.31;1693901;85;21186;-83
2021/04/07 11:48:11;;;;;;;5.58;2.52;;;;;;;5.44;56.05;99522.02;1694277;84;21638;-84
2021/04/07 11:50:38;;;;;;;6.67;2.10;;;;;;;5.55;57.12;99525.60;1694087;84;21179;-84
2021/04/07 11:53:05;;;;;;;7.15;2.72;;;;;;;5.62;56.75;99529.50;1694130;85;21152;-84